sensor_id;sensor_type;location;lat;lon;timestamp;temperature;humidity
76936;DHT22;65881;52.438;16.744;2022-12-18T00:00:30;-6.10;95.80
76936;DHT22;65881;52.438;16.744;2022-12-18T00:02:55;-6.20;95.90
76936;DHT22;65881;52.438;16.744;2022-12-18T00:05:21;-6.30;96.20
76936;DHT22;65881;52.438;16.744;2022-12-18T00:07:47;-6.20;96.30
76936;DHT22;65881;52.438;16.744;2022-12-18T00:10:12;-6.20;96.20
76936;DHT22;65881;52.438;16.744;2022-12-18T00:12:38;-6.30;96.50
76936;DHT22;65881;52.438;16.744;2022-12-18T00:15:04;-6.20;96.40
76936;DHT22;65881;52.438;16.744;2022-12-18T00:17:30;-6.20;96.30
76936;DHT22;65881;52.438;16.744;2022-12-18T00:19:56;-6.20;96.20
76936;DHT22;65881;52.438;16.744;2022-12-18T00:22:21;-6.20;96.00
76936;DHT22;65881;52.438;16.744;2022-12-18T00:24:47;-6.20;96.10
76936;DHT22;65881;52.438;16.744;2022-12-18T00:27:12;-6.20;95.90
76936;DHT22;65881;52.438;16.744;2022-12-18T00:29:41;-6.20;95.90
76936;DHT22;65881;52.438;16.744;2022-12-18T00:32:07;-6.20;95.40
76936;DHT22;65881;52.438;16.744;2022-12-18T00:34:33;-6.20;95.40
76936;DHT22;65881;52.438;16.744;2022-12-18T00:36:58;-6.30;95.30
76936;DHT22;65881;52.438;16.744;2022-12-18T00:39:24;-6.20;95.10
76936;DHT22;65881;52.438;16.744;2022-12-18T00:41:50;-6.40;95.20
76936;DHT22;65881;52.438;16.744;2022-12-18T00:44:34;-6.40;95.40
76936;DHT22;65881;52.438;16.744;2022-12-18T00:46:59;-6.40;95.80
76936;DHT22;65881;52.438;16.744;2022-12-18T00:49:25;-6.40;95.90
76936;DHT22;65881;52.438;16.744;2022-12-18T00:51:51;-6.40;96.00
76936;DHT22;65881;52.438;16.744;2022-12-18T00:54:17;-6.50;96.30
76936;DHT22;65881;52.438;16.744;2022-12-18T00:56:43;-6.50;96.20
76936;DHT22;65881;52.438;16.744;2022-12-18T00:59:08;-6.50;96.10
76936;DHT22;65881;52.438;16.744;2022-12-18T01:01:34;-6.50;96.30
76936;DHT22;65881;52.438;16.744;2022-12-18T01:04:02;-6.50;96.30
76936;DHT22;65881;52.438;16.744;2022-12-18T01:06:28;-6.50;96.50
76936;DHT22;65881;52.438;16.744;2022-12-18T01:08:54;-6.50;96.40
76936;DHT22;65881;52.438;16.744;2022-12-18T01:11:20;-6.50;95.90
76936;DHT22;65881;52.438;16.744;2022-12-18T01:13:46;-6.50;95.70
76936;DHT22;65881;52.438;16.744;2022-12-18T01:16:13;-6.60;95.50
76936;DHT22;65881;52.438;16.744;2022-12-18T01:18:42;-6.70;95.20
76936;DHT22;65881;52.438;16.744;2022-12-18T01:21:08;-6.60;95.20
76936;DHT22;65881;52.438;16.744;2022-12-18T01:23:34;-6.70;95.30
76936;DHT22;65881;52.438;16.744;2022-12-18T01:26:16;-6.70;95.40
76936;DHT22;65881;52.438;16.744;2022-12-18T01:28:42;-6.80;95.50
76936;DHT22;65881;52.438;16.744;2022-12-18T01:31:20;-6.90;95.50
76936;DHT22;65881;52.438;16.744;2022-12-18T01:33:46;-7.00;95.60
76936;DHT22;65881;52.438;16.744;2022-12-18T01:36:29;-7.00;96.00
76936;DHT22;65881;52.438;16.744;2022-12-18T01:38:55;-7.00;96.00
76936;DHT22;65881;52.438;16.744;2022-12-18T01:41:24;-7.00;96.20
76936;DHT22;65881;52.438;16.744;2022-12-18T01:43:51;-6.90;96.40
76936;DHT22;65881;52.438;16.744;2022-12-18T01:46:19;-7.00;95.90
76936;DHT22;65881;52.438;16.744;2022-12-18T01:48:47;-7.10;95.90
76936;DHT22;65881;52.438;16.744;2022-12-18T01:51:16;-7.10;95.80
76936;DHT22;65881;52.438;16.744;2022-12-18T01:53:43;-7.10;95.50
76936;DHT22;65881;52.438;16.744;2022-12-18T01:56:16;-7.10;95.40
76936;DHT22;65881;52.438;16.744;2022-12-18T01:58:59;-7.10;95.40
76936;DHT22;65881;52.438;16.744;2022-12-18T02:01:26;-7.10;95.70
76936;DHT22;65881;52.438;16.744;2022-12-18T02:03:52;-7.10;95.80
76936;DHT22;65881;52.438;16.744;2022-12-18T02:06:32;-7.10;95.90
76936;DHT22;65881;52.438;16.744;2022-12-18T02:09:16;-7.10;95.90
76936;DHT22;65881;52.438;16.744;2022-12-18T02:12:05;-7.20;95.90
76936;DHT22;65881;52.438;16.744;2022-12-18T02:17:42;-7.20;95.80
76936;DHT22;65881;52.438;16.744;2022-12-18T02:26:27;-7.40;95.10
76936;DHT22;65881;52.438;16.744;2022-12-18T02:29:16;-7.40;95.80
76936;DHT22;65881;52.438;16.744;2022-12-18T02:31:47;-7.40;95.70
76936;DHT22;65881;52.438;16.744;2022-12-18T02:34:16;-7.40;95.50
76936;DHT22;65881;52.438;16.744;2022-12-18T02:36:43;-7.40;95.60
76936;DHT22;65881;52.438;16.744;2022-12-18T02:39:11;-7.50;95.40
76936;DHT22;65881;52.438;16.744;2022-12-18T02:41:39;-7.60;95.70
76936;DHT22;65881;52.438;16.744;2022-12-18T02:44:11;-7.70;96.10
76936;DHT22;65881;52.438;16.744;2022-12-18T02:46:39;-7.80;96.50
76936;DHT22;65881;52.438;16.744;2022-12-18T02:51:56;-7.90;96.80
76936;DHT22;65881;52.438;16.744;2022-12-18T02:54:34;-7.90;96.90
76936;DHT22;65881;52.438;16.744;2022-12-18T02:59:58;-7.90;97.20
76936;DHT22;65881;52.438;16.744;2022-12-18T03:02:36;-7.90;97.00
76936;DHT22;65881;52.438;16.744;2022-12-18T03:05:10;-7.90;97.10
76936;DHT22;65881;52.438;16.744;2022-12-18T03:10:20;-7.90;97.10
76936;DHT22;65881;52.438;16.744;2022-12-18T03:13:13;-7.90;97.10
76936;DHT22;65881;52.438;16.744;2022-12-18T03:15:42;-7.90;97.10
76936;DHT22;65881;52.438;16.744;2022-12-18T03:18:20;-8.00;97.00
76936;DHT22;65881;52.438;16.744;2022-12-18T03:20:48;-8.00;97.10
76936;DHT22;65881;52.438;16.744;2022-12-18T03:23:22;-8.10;96.70
76936;DHT22;65881;52.438;16.744;2022-12-18T03:25:51;-8.10;97.10
76936;DHT22;65881;52.438;16.744;2022-12-18T03:28:21;-8.10;96.90
76936;DHT22;65881;52.438;16.744;2022-12-18T03:30:50;-8.10;97.20
76936;DHT22;65881;52.438;16.744;2022-12-18T03:33:25;-8.10;97.30
76936;DHT22;65881;52.438;16.744;2022-12-18T03:35:52;-8.10;97.50
76936;DHT22;65881;52.438;16.744;2022-12-18T03:38:17;-8.10;97.30
76936;DHT22;65881;52.438;16.744;2022-12-18T03:46:15;-7.90;97.00
76936;DHT22;65881;52.438;16.744;2022-12-18T03:48:48;-8.00;96.70
76936;DHT22;65881;52.438;16.744;2022-12-18T03:51:24;-8.00;96.60
76936;DHT22;65881;52.438;16.744;2022-12-18T03:53:58;-8.00;96.40
76936;DHT22;65881;52.438;16.744;2022-12-18T03:56:28;-8.00;96.50
76936;DHT22;65881;52.438;16.744;2022-12-18T03:58:56;-8.10;96.50
76936;DHT22;65881;52.438;16.744;2022-12-18T04:01:28;-8.10;96.40
76936;DHT22;65881;52.438;16.744;2022-12-18T04:03:59;-8.10;96.50
76936;DHT22;65881;52.438;16.744;2022-12-18T04:06:25;-8.20;97.00
76936;DHT22;65881;52.438;16.744;2022-12-18T04:08:53;-8.10;97.20
76936;DHT22;65881;52.438;16.744;2022-12-18T04:11:18;-8.20;97.20
76936;DHT22;65881;52.438;16.744;2022-12-18T04:13:44;-8.10;97.20
76936;DHT22;65881;52.438;16.744;2022-12-18T04:16:10;-8.10;97.00
76936;DHT22;65881;52.438;16.744;2022-12-18T04:18:36;-8.00;97.10
76936;DHT22;65881;52.438;16.744;2022-12-18T04:21:02;-7.90;96.70
76936;DHT22;65881;52.438;16.744;2022-12-18T04:23:28;-7.90;96.60
76936;DHT22;65881;52.438;16.744;2022-12-18T04:25:54;-8.00;96.50
76936;DHT22;65881;52.438;16.744;2022-12-18T04:28:20;-8.00;96.50
76936;DHT22;65881;52.438;16.744;2022-12-18T04:30:46;-8.10;96.40
76936;DHT22;65881;52.438;16.744;2022-12-18T04:33:12;-8.00;96.60
76936;DHT22;65881;52.438;16.744;2022-12-18T04:35:39;-7.90;96.70
76936;DHT22;65881;52.438;16.744;2022-12-18T04:38:06;-7.90;96.40
76936;DHT22;65881;52.438;16.744;2022-12-18T04:40:34;-7.90;96.20
76936;DHT22;65881;52.438;16.744;2022-12-18T04:42:59;-7.90;96.20
76936;DHT22;65881;52.438;16.744;2022-12-18T04:45:25;-7.90;96.80
76936;DHT22;65881;52.438;16.744;2022-12-18T04:47:51;-7.90;96.80
76936;DHT22;65881;52.438;16.744;2022-12-18T04:50:17;-7.90;96.80
76936;DHT22;65881;52.438;16.744;2022-12-18T04:52:43;-7.80;96.50
76936;DHT22;65881;52.438;16.744;2022-12-18T04:55:09;-7.70;96.40
76936;DHT22;65881;52.438;16.744;2022-12-18T04:57:34;-7.70;96.20
76936;DHT22;65881;52.438;16.744;2022-12-18T05:00:02;-7.80;96.40
76936;DHT22;65881;52.438;16.744;2022-12-18T05:02:28;-7.70;96.80
76936;DHT22;65881;52.438;16.744;2022-12-18T05:04:54;-7.70;96.90
76936;DHT22;65881;52.438;16.744;2022-12-18T05:07:20;-7.70;97.10
76936;DHT22;65881;52.438;16.744;2022-12-18T05:09:45;-7.70;97.10
76936;DHT22;65881;52.438;16.744;2022-12-18T05:12:11;-7.70;97.10
76936;DHT22;65881;52.438;16.744;2022-12-18T05:14:36;-7.70;97.10
76936;DHT22;65881;52.438;16.744;2022-12-18T05:17:02;-7.70;97.10
76936;DHT22;65881;52.438;16.744;2022-12-18T05:19:28;-7.70;97.30
76936;DHT22;65881;52.438;16.744;2022-12-18T05:21:53;-7.60;97.20
76936;DHT22;65881;52.438;16.744;2022-12-18T05:24:19;-7.60;97.50
76936;DHT22;65881;52.438;16.744;2022-12-18T05:26:45;-7.60;97.60
76936;DHT22;65881;52.438;16.744;2022-12-18T05:29:10;-7.50;97.40
76936;DHT22;65881;52.438;16.744;2022-12-18T05:31:38;-7.60;97.30
76936;DHT22;65881;52.438;16.744;2022-12-18T05:34:06;-7.60;97.60
76936;DHT22;65881;52.438;16.744;2022-12-18T05:36:32;-7.60;97.80
76936;DHT22;65881;52.438;16.744;2022-12-18T05:39:02;-7.60;97.80
76936;DHT22;65881;52.438;16.744;2022-12-18T05:41:28;-7.50;98.00
76936;DHT22;65881;52.438;16.744;2022-12-18T05:43:56;-7.60;98.00
76936;DHT22;65881;52.438;16.744;2022-12-18T05:46:21;-7.60;98.10
76936;DHT22;65881;52.438;16.744;2022-12-18T05:48:47;-7.60;98.40
76936;DHT22;65881;52.438;16.744;2022-12-18T05:54:06;-7.40;98.00
76936;DHT22;65881;52.438;16.744;2022-12-18T05:56:31;-7.30;97.70
76936;DHT22;65881;52.438;16.744;2022-12-18T05:58:57;-7.40;97.30
76936;DHT22;65881;52.438;16.744;2022-12-18T06:01:25;-7.40;97.50
76936;DHT22;65881;52.438;16.744;2022-12-18T06:03:51;-7.30;97.80
76936;DHT22;65881;52.438;16.744;2022-12-18T06:06:22;-7.30;97.60
76936;DHT22;65881;52.438;16.744;2022-12-18T06:08:49;-7.30;97.50
76936;DHT22;65881;52.438;16.744;2022-12-18T06:11:23;-7.30;97.40
76936;DHT22;65881;52.438;16.744;2022-12-18T06:13:56;-7.30;97.60
76936;DHT22;65881;52.438;16.744;2022-12-18T06:16:22;-7.40;97.50
76936;DHT22;65881;52.438;16.744;2022-12-18T06:18:47;-7.40;97.50
76936;DHT22;65881;52.438;16.744;2022-12-18T06:21:13;-7.40;97.20
76936;DHT22;65881;52.438;16.744;2022-12-18T06:23:39;-7.40;97.50
76936;DHT22;65881;52.438;16.744;2022-12-18T06:26:10;-7.40;97.80
76936;DHT22;65881;52.438;16.744;2022-12-18T06:28:39;-7.40;97.90
76936;DHT22;65881;52.438;16.744;2022-12-18T06:31:05;-7.40;97.90
76936;DHT22;65881;52.438;16.744;2022-12-18T06:33:31;-7.30;97.80
76936;DHT22;65881;52.438;16.744;2022-12-18T06:36:02;-7.20;97.70
76936;DHT22;65881;52.438;16.744;2022-12-18T06:38:28;-7.20;97.50
76936;DHT22;65881;52.438;16.744;2022-12-18T06:40:53;-7.20;97.60
76936;DHT22;65881;52.438;16.744;2022-12-18T06:43:19;-7.10;97.50
76936;DHT22;65881;52.438;16.744;2022-12-18T06:45:45;-7.10;97.30
76936;DHT22;65881;52.438;16.744;2022-12-18T06:48:11;-7.20;96.70
76936;DHT22;65881;52.438;16.744;2022-12-18T06:50:37;-7.10;96.50
76936;DHT22;65881;52.438;16.744;2022-12-18T06:53:02;-7.20;96.30
76936;DHT22;65881;52.438;16.744;2022-12-18T06:55:28;-7.40;96.60
76936;DHT22;65881;52.438;16.744;2022-12-18T06:57:54;-7.50;97.40
76936;DHT22;65881;52.438;16.744;2022-12-18T07:00:19;-7.50;97.80
76936;DHT22;65881;52.438;16.744;2022-12-18T07:02:45;-7.50;98.00
76936;DHT22;65881;52.438;16.744;2022-12-18T07:05:11;-7.50;98.50
76936;DHT22;65881;52.438;16.744;2022-12-18T07:07:37;-7.40;98.60
76936;DHT22;65881;52.438;16.744;2022-12-18T07:10:04;-7.40;98.70
76936;DHT22;65881;52.438;16.744;2022-12-18T07:12:29;-7.30;98.60
76936;DHT22;65881;52.438;16.744;2022-12-18T07:14:55;-7.30;98.60
76936;DHT22;65881;52.438;16.744;2022-12-18T07:17:21;-7.40;98.50
76936;DHT22;65881;52.438;16.744;2022-12-18T07:19:46;-7.30;98.50
76936;DHT22;65881;52.438;16.744;2022-12-18T07:22:12;-7.30;98.20
76936;DHT22;65881;52.438;16.744;2022-12-18T07:24:37;-7.30;98.20
76936;DHT22;65881;52.438;16.744;2022-12-18T07:27:03;-7.20;98.00
76936;DHT22;65881;52.438;16.744;2022-12-18T07:29:29;-7.30;97.60
76936;DHT22;65881;52.438;16.744;2022-12-18T07:31:54;-7.40;98.10
76936;DHT22;65881;52.438;16.744;2022-12-18T07:34:20;-7.40;98.60
76936;DHT22;65881;52.438;16.744;2022-12-18T07:36:45;-7.30;98.30
76936;DHT22;65881;52.438;16.744;2022-12-18T07:39:11;-7.20;97.90
76936;DHT22;65881;52.438;16.744;2022-12-18T07:41:37;-7.30;97.70
76936;DHT22;65881;52.438;16.744;2022-12-18T07:44:03;-7.40;98.20
76936;DHT22;65881;52.438;16.744;2022-12-18T07:46:29;-7.40;98.50
76936;DHT22;65881;52.438;16.744;2022-12-18T07:48:54;-7.40;98.80
76936;DHT22;65881;52.438;16.744;2022-12-18T07:51:20;-7.30;98.80
76936;DHT22;65881;52.438;16.744;2022-12-18T07:53:46;-7.30;98.80
76936;DHT22;65881;52.438;16.744;2022-12-18T07:56:12;-7.40;98.90
76936;DHT22;65881;52.438;16.744;2022-12-18T07:58:38;-7.40;99.20
76936;DHT22;65881;52.438;16.744;2022-12-18T08:03:31;-7.10;99.10
76936;DHT22;65881;52.438;16.744;2022-12-18T08:06:04;-7.10;98.90
76936;DHT22;65881;52.438;16.744;2022-12-18T08:08:30;-7.10;98.50
76936;DHT22;65881;52.438;16.744;2022-12-18T08:10:58;-7.10;98.60
76936;DHT22;65881;52.438;16.744;2022-12-18T08:13:24;-7.00;98.70
76936;DHT22;65881;52.438;16.744;2022-12-18T08:15:58;-7.00;98.70
76936;DHT22;65881;52.438;16.744;2022-12-18T08:18:24;-7.00;98.70
76936;DHT22;65881;52.438;16.744;2022-12-18T08:20:51;-6.90;98.60
76936;DHT22;65881;52.438;16.744;2022-12-18T08:23:16;-6.80;98.50
76936;DHT22;65881;52.438;16.744;2022-12-18T08:25:42;-6.80;98.30
76936;DHT22;65881;52.438;16.744;2022-12-18T08:28:07;-6.80;98.10
76936;DHT22;65881;52.438;16.744;2022-12-18T08:30:33;-6.80;98.10
76936;DHT22;65881;52.438;16.744;2022-12-18T08:32:59;-6.80;98.20
76936;DHT22;65881;52.438;16.744;2022-12-18T08:35:26;-6.80;98.30
76936;DHT22;65881;52.438;16.744;2022-12-18T08:37:52;-6.70;98.30
76936;DHT22;65881;52.438;16.744;2022-12-18T08:40:18;-6.60;98.30
76936;DHT22;65881;52.438;16.744;2022-12-18T08:42:43;-6.70;98.10
76936;DHT22;65881;52.438;16.744;2022-12-18T08:45:27;-6.60;98.40
76936;DHT22;65881;52.438;16.744;2022-12-18T08:47:53;-6.60;98.40
76936;DHT22;65881;52.438;16.744;2022-12-18T08:50:19;-6.50;98.30
76936;DHT22;65881;52.438;16.744;2022-12-18T08:52:45;-6.40;98.00
76936;DHT22;65881;52.438;16.744;2022-12-18T08:55:11;-6.30;97.50
76936;DHT22;65881;52.438;16.744;2022-12-18T08:57:36;-6.30;96.90
76936;DHT22;65881;52.438;16.744;2022-12-18T09:00:03;-6.30;96.90
76936;DHT22;65881;52.438;16.744;2022-12-18T09:02:29;-6.30;97.30
76936;DHT22;65881;52.438;16.744;2022-12-18T09:04:54;-6.20;97.10
76936;DHT22;65881;52.438;16.744;2022-12-18T09:07:20;-6.30;96.60
76936;DHT22;65881;52.438;16.744;2022-12-18T09:09:46;-6.40;96.50
76936;DHT22;65881;52.438;16.744;2022-12-18T09:12:11;-6.40;97.30
76936;DHT22;65881;52.438;16.744;2022-12-18T09:14:37;-6.30;97.30
76936;DHT22;65881;52.438;16.744;2022-12-18T09:17:03;-6.30;97.40
76936;DHT22;65881;52.438;16.744;2022-12-18T09:19:28;-6.30;97.30
76936;DHT22;65881;52.438;16.744;2022-12-18T09:21:57;-6.20;97.30
76936;DHT22;65881;52.438;16.744;2022-12-18T09:24:24;-6.20;97.50
76936;DHT22;65881;52.438;16.744;2022-12-18T09:26:53;-6.00;97.20
76936;DHT22;65881;52.438;16.744;2022-12-18T09:29:20;-6.00;96.70
76936;DHT22;65881;52.438;16.744;2022-12-18T09:31:46;-6.00;96.80
76936;DHT22;65881;52.438;16.744;2022-12-18T09:34:11;-6.00;96.50
76936;DHT22;65881;52.438;16.744;2022-12-18T09:36:38;-5.90;96.20
76936;DHT22;65881;52.438;16.744;2022-12-18T09:39:03;-5.80;95.80
76936;DHT22;65881;52.438;16.744;2022-12-18T09:41:51;-6.00;96.00
76936;DHT22;65881;52.438;16.744;2022-12-18T09:49:47;-5.80;96.80
76936;DHT22;65881;52.438;16.744;2022-12-18T09:54:58;-5.70;96.00
76936;DHT22;65881;52.438;16.744;2022-12-18T09:57:25;-5.70;96.00
76936;DHT22;65881;52.438;16.744;2022-12-18T09:59:58;-5.70;95.90
76936;DHT22;65881;52.438;16.744;2022-12-18T10:02:30;-5.60;96.30
76936;DHT22;65881;52.438;16.744;2022-12-18T10:05:09;-5.60;96.00
76936;DHT22;65881;52.438;16.744;2022-12-18T10:08:02;-5.60;95.30
76936;DHT22;65881;52.438;16.744;2022-12-18T10:10:52;-5.50;95.30
76936;DHT22;65881;52.438;16.744;2022-12-18T10:16:03;-5.50;95.60
76936;DHT22;65881;52.438;16.744;2022-12-18T10:21:32;-5.40;95.10
76936;DHT22;65881;52.438;16.744;2022-12-18T10:26:58;-5.40;94.70
76936;DHT22;65881;52.438;16.744;2022-12-18T10:29:27;-5.40;95.40
76936;DHT22;65881;52.438;16.744;2022-12-18T10:31:53;-5.30;95.60
76936;DHT22;65881;52.438;16.744;2022-12-18T10:34:23;-5.20;95.50
76936;DHT22;65881;52.438;16.744;2022-12-18T10:36:49;-5.00;96.20
76936;DHT22;65881;52.438;16.744;2022-12-18T10:39:23;-5.00;94.70
76936;DHT22;65881;52.438;16.744;2022-12-18T10:41:49;-5.10;93.90
76936;DHT22;65881;52.438;16.744;2022-12-18T10:44:22;-5.10;93.90
76936;DHT22;65881;52.438;16.744;2022-12-18T10:46:51;-5.10;94.20
76936;DHT22;65881;52.438;16.744;2022-12-18T10:49:38;-5.10;94.40
76936;DHT22;65881;52.438;16.744;2022-12-18T10:52:15;-5.00;94.60
76936;DHT22;65881;52.438;16.744;2022-12-18T10:54:57;-5.00;94.20
76936;DHT22;65881;52.438;16.744;2022-12-18T11:00:12;-5.00;94.40
76936;DHT22;65881;52.438;16.744;2022-12-18T11:02:44;-4.90;94.40
76936;DHT22;65881;52.438;16.744;2022-12-18T11:05:27;-4.80;93.70
76936;DHT22;65881;52.438;16.744;2022-12-18T11:07:53;-5.00;93.50
76936;DHT22;65881;52.438;16.744;2022-12-18T11:10:39;-5.00;93.90
76936;DHT22;65881;52.438;16.744;2022-12-18T11:13:23;-5.00;94.10
76936;DHT22;65881;52.438;16.744;2022-12-18T11:15:49;-4.90;93.80
76936;DHT22;65881;52.438;16.744;2022-12-18T11:18:36;-4.90;93.20
76936;DHT22;65881;52.438;16.744;2022-12-18T11:21:09;-4.90;93.80
76936;DHT22;65881;52.438;16.744;2022-12-18T11:23:37;-4.80;93.90
76936;DHT22;65881;52.438;16.744;2022-12-18T11:26:08;-4.70;93.00
76936;DHT22;65881;52.438;16.744;2022-12-18T11:31:24;-4.60;92.90
76936;DHT22;65881;52.438;16.744;2022-12-18T11:36:44;-4.70;92.90
76936;DHT22;65881;52.438;16.744;2022-12-18T11:45:00;-4.80;93.00
76936;DHT22;65881;52.438;16.744;2022-12-18T11:47:49;-4.90;93.00
76936;DHT22;65881;52.438;16.744;2022-12-18T11:50:24;-4.80;93.10
76936;DHT22;65881;52.438;16.744;2022-12-18T11:53:02;-4.70;93.30
76936;DHT22;65881;52.438;16.744;2022-12-18T11:55:44;-4.80;93.20
76936;DHT22;65881;52.438;16.744;2022-12-18T12:00:49;-4.60;93.00
76936;DHT22;65881;52.438;16.744;2022-12-18T12:06:10;-4.60;92.70
76936;DHT22;65881;52.438;16.744;2022-12-18T12:08:59;-4.60;92.50
76936;DHT22;65881;52.438;16.744;2022-12-18T12:19:40;-4.40;92.00
76936;DHT22;65881;52.438;16.744;2022-12-18T12:39:56;-4.60;91.80
76936;DHT22;65881;52.438;16.744;2022-12-18T12:42:31;-4.60;91.80
76936;DHT22;65881;52.438;16.744;2022-12-18T12:45:33;-4.60;93.00
76936;DHT22;65881;52.438;16.744;2022-12-18T12:48:02;-4.30;91.80
76936;DHT22;65881;52.438;16.744;2022-12-18T12:50:34;-4.20;90.90
76936;DHT22;65881;52.438;16.744;2022-12-18T12:53:01;-4.00;90.40
76936;DHT22;65881;52.438;16.744;2022-12-18T12:55:31;-4.00;89.80
76936;DHT22;65881;52.438;16.744;2022-12-18T13:09:03;-4.20;90.30
76936;DHT22;65881;52.438;16.744;2022-12-18T13:11:42;-4.30;90.10
76936;DHT22;65881;52.438;16.744;2022-12-18T13:14:38;-4.40;90.30
76936;DHT22;65881;52.438;16.744;2022-12-18T13:22:38;-4.60;90.80
76936;DHT22;65881;52.438;16.744;2022-12-18T13:28:14;-4.40;91.40
76936;DHT22;65881;52.438;16.744;2022-12-18T13:40:58;-4.80;91.10
76936;DHT22;65881;52.438;16.744;2022-12-18T13:43:43;-4.70;90.90
76936;DHT22;65881;52.438;16.744;2022-12-18T13:46:30;-4.70;91.10
76936;DHT22;65881;52.438;16.744;2022-12-18T13:51:49;-4.60;91.70
76936;DHT22;65881;52.438;16.744;2022-12-18T13:57:01;-4.60;90.60
76936;DHT22;65881;52.438;16.744;2022-12-18T13:59:35;-4.60;90.80
76936;DHT22;65881;52.438;16.744;2022-12-18T14:02:23;-4.60;91.00
76936;DHT22;65881;52.438;16.744;2022-12-18T14:04:50;-4.80;90.40
76936;DHT22;65881;52.438;16.744;2022-12-18T14:07:28;-4.90;90.30
76936;DHT22;65881;52.438;16.744;2022-12-18T14:09:59;-4.90;90.70
76936;DHT22;65881;52.438;16.744;2022-12-18T14:12:36;-5.00;91.10
76936;DHT22;65881;52.438;16.744;2022-12-18T14:15:35;-5.00;91.40
76936;DHT22;65881;52.438;16.744;2022-12-18T14:20:31;-4.60;90.30
76936;DHT22;65881;52.438;16.744;2022-12-18T14:22:58;-4.50;89.40
76936;DHT22;65881;52.438;16.744;2022-12-18T14:25:29;-4.60;89.10
76936;DHT22;65881;52.438;16.744;2022-12-18T14:30:44;-4.60;89.90
76936;DHT22;65881;52.438;16.744;2022-12-18T14:35:40;-4.70;89.30
76936;DHT22;65881;52.438;16.744;2022-12-18T14:40:43;-5.00;90.10
76936;DHT22;65881;52.438;16.744;2022-12-18T14:43:12;-5.00;90.40
76936;DHT22;65881;52.438;16.744;2022-12-18T14:45:46;-5.00;90.40
76936;DHT22;65881;52.438;16.744;2022-12-18T14:51:16;-5.10;89.70
76936;DHT22;65881;52.438;16.744;2022-12-18T14:53:47;-5.10;90.20
76936;DHT22;65881;52.438;16.744;2022-12-18T14:56:23;-5.10;90.20
76936;DHT22;65881;52.438;16.744;2022-12-18T14:59:14;-5.10;90.30
76936;DHT22;65881;52.438;16.744;2022-12-18T15:04:33;-5.20;91.10
76936;DHT22;65881;52.438;16.744;2022-12-18T15:09:35;-5.20;90.50
76936;DHT22;65881;52.438;16.744;2022-12-18T15:12:02;-5.20;90.20
76936;DHT22;65881;52.438;16.744;2022-12-18T15:14:35;-5.20;90.40
76936;DHT22;65881;52.438;16.744;2022-12-18T15:17:16;-5.30;90.50
76936;DHT22;65881;52.438;16.744;2022-12-18T15:19:43;-5.40;90.50
76936;DHT22;65881;52.438;16.744;2022-12-18T15:22:29;-5.40;91.20
76936;DHT22;65881;52.438;16.744;2022-12-18T15:24:56;-5.40;90.80
76936;DHT22;65881;52.438;16.744;2022-12-18T15:27:45;-5.50;90.70
76936;DHT22;65881;52.438;16.744;2022-12-18T15:30:19;-5.50;90.60
76936;DHT22;65881;52.438;16.744;2022-12-18T15:32:46;-5.50;90.60
76936;DHT22;65881;52.438;16.744;2022-12-18T15:35:21;-5.50;90.60
76936;DHT22;65881;52.438;16.744;2022-12-18T15:37:48;-5.50;90.70
76936;DHT22;65881;52.438;16.744;2022-12-18T15:40:19;-5.60;91.80
76936;DHT22;65881;52.438;16.744;2022-12-18T15:42:46;-5.60;91.40
76936;DHT22;65881;52.438;16.744;2022-12-18T15:45:34;-5.60;92.50
76936;DHT22;65881;52.438;16.744;2022-12-18T15:48:21;-5.60;91.70
76936;DHT22;65881;52.438;16.744;2022-12-18T15:50:49;-5.60;91.20
76936;DHT22;65881;52.438;16.744;2022-12-18T15:53:15;-5.60;91.40
76936;DHT22;65881;52.438;16.744;2022-12-18T15:55:41;-5.70;91.20
76936;DHT22;65881;52.438;16.744;2022-12-18T15:58:25;-5.70;90.90
76936;DHT22;65881;52.438;16.744;2022-12-18T16:00:59;-5.80;90.60
76936;DHT22;65881;52.438;16.744;2022-12-18T16:03:26;-5.80;90.60
76936;DHT22;65881;52.438;16.744;2022-12-18T16:05:51;-6.00;90.80
76936;DHT22;65881;52.438;16.744;2022-12-18T16:08:25;-6.00;91.20
76936;DHT22;65881;52.438;16.744;2022-12-18T16:10:51;-6.00;91.90
76936;DHT22;65881;52.438;16.744;2022-12-18T16:13:19;-6.00;92.20
76936;DHT22;65881;52.438;16.744;2022-12-18T16:15:47;-6.00;92.60
76936;DHT22;65881;52.438;16.744;2022-12-18T16:18:12;-6.00;92.80
76936;DHT22;65881;52.438;16.744;2022-12-18T16:20:38;-6.00;93.10
76936;DHT22;65881;52.438;16.744;2022-12-18T16:23:05;-6.00;93.00
76936;DHT22;65881;52.438;16.744;2022-12-18T16:25:32;-6.00;92.60
76936;DHT22;65881;52.438;16.744;2022-12-18T16:27:58;-6.00;92.50
76936;DHT22;65881;52.438;16.744;2022-12-18T16:30:28;-6.00;92.50
76936;DHT22;65881;52.438;16.744;2022-12-18T16:32:56;-6.00;92.50
76936;DHT22;65881;52.438;16.744;2022-12-18T16:35:23;-6.00;92.40
76936;DHT22;65881;52.438;16.744;2022-12-18T16:37:53;-6.00;92.30
76936;DHT22;65881;52.438;16.744;2022-12-18T16:40:22;-5.90;91.90
76936;DHT22;65881;52.438;16.744;2022-12-18T16:42:48;-5.90;91.80
76936;DHT22;65881;52.438;16.744;2022-12-18T16:45:16;-5.90;91.80
76936;DHT22;65881;52.438;16.744;2022-12-18T16:47:44;-5.80;91.60
76936;DHT22;65881;52.438;16.744;2022-12-18T16:50:10;-5.90;91.70
76936;DHT22;65881;52.438;16.744;2022-12-18T16:52:36;-6.00;91.80
76936;DHT22;65881;52.438;16.744;2022-12-18T16:55:03;-6.00;92.00
76936;DHT22;65881;52.438;16.744;2022-12-18T16:57:28;-6.00;92.40
76936;DHT22;65881;52.438;16.744;2022-12-18T16:59:54;-6.00;92.90
76936;DHT22;65881;52.438;16.744;2022-12-18T17:02:40;-6.00;92.70
76936;DHT22;65881;52.438;16.744;2022-12-18T17:05:06;-5.90;92.60
76936;DHT22;65881;52.438;16.744;2022-12-18T17:07:32;-6.00;92.70
76936;DHT22;65881;52.438;16.744;2022-12-18T17:09:57;-5.90;92.10
76936;DHT22;65881;52.438;16.744;2022-12-18T17:12:23;-5.80;92.00
76936;DHT22;65881;52.438;16.744;2022-12-18T17:14:49;-5.80;91.70
76936;DHT22;65881;52.438;16.744;2022-12-18T17:17:15;-5.80;92.00
76936;DHT22;65881;52.438;16.744;2022-12-18T17:19:40;-5.80;91.60
76936;DHT22;65881;52.438;16.744;2022-12-18T17:22:06;-5.80;91.50
76936;DHT22;65881;52.438;16.744;2022-12-18T17:24:38;-5.90;91.60
76936;DHT22;65881;52.438;16.744;2022-12-18T17:27:04;-5.80;91.40
76936;DHT22;65881;52.438;16.744;2022-12-18T17:29:30;-6.00;91.10
76936;DHT22;65881;52.438;16.744;2022-12-18T17:31:57;-6.00;91.40
76936;DHT22;65881;52.438;16.744;2022-12-18T17:34:22;-6.00;91.40
76936;DHT22;65881;52.438;16.744;2022-12-18T17:36:50;-6.00;91.40
76936;DHT22;65881;52.438;16.744;2022-12-18T17:39:18;-6.00;91.50
76936;DHT22;65881;52.438;16.744;2022-12-18T17:41:45;-6.00;91.40
76936;DHT22;65881;52.438;16.744;2022-12-18T17:44:15;-5.90;91.40
76936;DHT22;65881;52.438;16.744;2022-12-18T17:46:42;-6.00;91.20
76936;DHT22;65881;52.438;16.744;2022-12-18T17:49:09;-6.00;91.60
76936;DHT22;65881;52.438;16.744;2022-12-18T17:51:36;-6.10;91.50
76936;DHT22;65881;52.438;16.744;2022-12-18T17:54:11;-6.10;91.50